Terminal Aerodrome Forecast
Issued by NWS

Home | Current Version | Previous Version | Text Only | Print | Product List | Glossary On
Versions: 1 2 3 4 5 6 7 8 9 10 11 12 13 14 15 16 17 18
000
FTUS46 KMTR 281121
TAFMRY
TAF
KMRY 281121Z 2812/2912 15005KT P6SM FEW012
      TEMPO 2812/2815 BKN010
     FM281700 29013KT P6SM FEW015
     FM290300 29010KT P6SM FEW012
     FM290900 16004KT P6SM FEW012=

USA.gov is the U.S. government's official web portal to all federal, state and local government web resources and services.